Dragoon, AZ (85609)

3:19 PM MST on August 31, 2016 (GMT -0700)
Dragoon | | Change Station

Elev 4731 ft 32.03 °N, 110.09 °W | Updated 41 seconds ago

Overcast
Overcast
74.7 °F
Feels Like 76 °F
N
4.7
Wind Variable Wind from North
Gusts 5.4 mph

Today
High -- | Low -- °F
--% Chance of Precip.
Yesterday
High -- | Low -- °F
Precip. -- in
Pressure 29.91 in
Visibility 10.0 miles
Clouds Mostly Cloudy 10000 ft
Overcast 14000 ft
Heat Index 76 °F
Dew Point 65 °F
Humidity 72%
Rainfall 0.02 in
Snow Depth Not available.
5:55 AM 6:44 PM
Waning Crescent, 0% visible
METAR KFHU 312158Z AUTO 11006KT 10SM BKN100 OVC140 27/14 A3012 RMK AO2 LTG DSNT S SLP126 T02710139
Pressure 29.91 in
Visibility 10.0 miles
Clouds Mostly Cloudy 10000 ft
Overcast 14000 ft
Heat Index 76 °F
Dew Point 65 °F
Humidity 72%
Rainfall 0.02 in
Snow Depth Not available.
5:55 AM 6:44 PM
Waning Crescent, 0% visible
METAR KFHU 312158Z AUTO 11006KT 10SM BKN100 OVC140 27/14 A3012 RMK AO2 LTG DSNT S SLP126 T02710139

10-Day Weather Forecast

Almanac

Astronomy

Aug. 31, 2016 Rise Set
Actual Time
Civil Twilight
Nautical Twilight
Astronomical Twilight
Moon
Length of Visible Light
Length of Day
Tomorrow will be .
, % of the Moon is Illuminated

Today's Extremes

State Highs State Lows

Community

WunderPhotos

Upload Photos

1,936,200 photos uploaded!

WunderBlog® & News

Nearby

Air Quality

  Air Quality AQ Index Pollutant
Not available.

Snow Depth

Station Depth Elevation

Earthquake Activity

City Distance Mag. Time & Date
Minimum magnitude displayed is 2.5.

Coastal Water Temperatures

Place Temperature

Stations

Nearby Weather Stations

Station Location Temp. Windchill Dew Point Humidity Wind Precip. Elev Updated Type
                   

Watches & Warnings

There are currently no watches in effect.